sensor_id;sensor_type;location;lat;lon;timestamp;P1;durP1;ratioP1;P2;durP2;ratioP2
34876;SDS011;21086;44.780;17.194;2024-02-14T00:00:22;24.83;;;12.65;;
34876;SDS011;21086;44.780;17.194;2024-02-14T00:02:51;27.73;;;14.93;;
34876;SDS011;21086;44.780;17.194;2024-02-14T00:05:21;21.80;;;12.57;;
34876;SDS011;21086;44.780;17.194;2024-02-14T00:07:49;24.88;;;12.85;;
34876;SDS011;21086;44.780;17.194;2024-02-14T00:10:17;29.05;;;14.18;;
34876;SDS011;21086;44.780;17.194;2024-02-14T00:12:45;28.42;;;13.98;;
34876;SDS011;21086;44.780;17.194;2024-02-14T00:15:13;24.13;;;12.25;;
34876;SDS011;21086;44.780;17.194;2024-02-14T00:17:40;25.65;;;11.57;;
34876;SDS011;21086;44.780;17.194;2024-02-14T00:20:08;26.42;;;11.32;;
34876;SDS011;21086;44.780;17.194;2024-02-14T00:22:39;19.40;;;11.00;;
34876;SDS011;21086;44.780;17.194;2024-02-14T00:25:06;23.48;;;11.85;;
34876;SDS011;21086;44.780;17.194;2024-02-14T00:27:33;19.52;;;10.02;;
34876;SDS011;21086;44.780;17.194;2024-02-14T00:30:00;18.13;;;9.02;;
34876;SDS011;21086;44.780;17.194;2024-02-14T00:32:30;26.48;;;12.57;;
34876;SDS011;21086;44.780;17.194;2024-02-14T00:34:58;24.63;;;13.02;;
34876;SDS011;21086;44.780;17.194;2024-02-14T00:37:25;23.10;;;10.82;;
34876;SDS011;21086;44.780;17.194;2024-02-14T00:39:52;16.05;;;9.23;;
34876;SDS011;21086;44.780;17.194;2024-02-14T00:42:20;14.90;;;8.07;;
34876;SDS011;21086;44.780;17.194;2024-02-14T00:44:47;16.33;;;8.20;;
34876;SDS011;21086;44.780;17.194;2024-02-14T00:47:14;19.25;;;9.43;;
34876;SDS011;21086;44.780;17.194;2024-02-14T00:49:41;19.35;;;9.45;;
34876;SDS011;21086;44.780;17.194;2024-02-14T00:52:08;18.75;;;9.32;;
34876;SDS011;21086;44.780;17.194;2024-02-14T00:54:35;23.75;;;12.68;;
34876;SDS011;21086;44.780;17.194;2024-02-14T00:57:02;26.25;;;13.20;;
34876;SDS011;21086;44.780;17.194;2024-02-14T00:59:30;31.05;;;14.88;;
34876;SDS011;21086;44.780;17.194;2024-02-14T01:01:56;32.10;;;16.70;;
34876;SDS011;21086;44.780;17.194;2024-02-14T01:04:23;30.48;;;16.38;;
34876;SDS011;21086;44.780;17.194;2024-02-14T01:06:51;35.05;;;17.10;;
34876;SDS011;21086;44.780;17.194;2024-02-14T01:09:18;27.80;;;14.00;;
34876;SDS011;21086;44.780;17.194;2024-02-14T01:11:45;24.73;;;12.82;;
34876;SDS011;21086;44.780;17.194;2024-02-14T01:14:12;22.40;;;11.65;;
34876;SDS011;21086;44.780;17.194;2024-02-14T01:16:43;20.30;;;9.88;;
34876;SDS011;21086;44.780;17.194;2024-02-14T01:19:14;18.90;;;9.70;;
34876;SDS011;21086;44.780;17.194;2024-02-14T01:21:41;19.85;;;9.65;;
34876;SDS011;21086;44.780;17.194;2024-02-14T01:24:08;13.73;;;6.93;;
34876;SDS011;21086;44.780;17.194;2024-02-14T01:26:35;16.10;;;8.68;;
34876;SDS011;21086;44.780;17.194;2024-02-14T01:29:02;16.77;;;8.63;;
34876;SDS011;21086;44.780;17.194;2024-02-14T01:31:35;13.20;;;7.00;;
34876;SDS011;21086;44.780;17.194;2024-02-14T01:34:02;12.10;;;7.38;;
34876;SDS011;21086;44.780;17.194;2024-02-14T01:36:29;7.30;;;4.20;;
34876;SDS011;21086;44.780;17.194;2024-02-14T01:38:56;7.85;;;4.80;;
34876;SDS011;21086;44.780;17.194;2024-02-14T01:41:23;11.82;;;6.13;;
34876;SDS011;21086;44.780;17.194;2024-02-14T01:43:51;11.32;;;6.13;;
34876;SDS011;21086;44.780;17.194;2024-02-14T01:46:18;9.50;;;5.43;;
34876;SDS011;21086;44.780;17.194;2024-02-14T01:48:46;8.85;;;5.10;;
34876;SDS011;21086;44.780;17.194;2024-02-14T01:51:13;9.38;;;5.00;;
34876;SDS011;21086;44.780;17.194;2024-02-14T01:53:43;5.72;;;3.60;;
34876;SDS011;21086;44.780;17.194;2024-02-14T01:56:11;11.18;;;6.22;;
34876;SDS011;21086;44.780;17.194;2024-02-14T01:58:39;29.90;;;14.50;;
34876;SDS011;21086;44.780;17.194;2024-02-14T02:01:06;11.07;;;5.72;;
34876;SDS011;21086;44.780;17.194;2024-02-14T02:03:33;7.10;;;4.03;;
34876;SDS011;21086;44.780;17.194;2024-02-14T02:06:04;9.98;;;4.57;;
34876;SDS011;21086;44.780;17.194;2024-02-14T02:08:32;7.57;;;3.75;;
34876;SDS011;21086;44.780;17.194;2024-02-14T02:11:00;6.13;;;3.95;;
34876;SDS011;21086;44.780;17.194;2024-02-14T02:13:27;7.20;;;4.40;;
34876;SDS011;21086;44.780;17.194;2024-02-14T02:15:54;12.13;;;6.93;;
34876;SDS011;21086;44.780;17.194;2024-02-14T02:18:21;14.88;;;6.38;;
34876;SDS011;21086;44.780;17.194;2024-02-14T02:20:48;13.45;;;6.68;;
34876;SDS011;21086;44.780;17.194;2024-02-14T02:23:16;15.80;;;6.90;;
34876;SDS011;21086;44.780;17.194;2024-02-14T02:25:43;8.52;;;4.93;;
34876;SDS011;21086;44.780;17.194;2024-02-14T02:28:10;9.27;;;4.50;;
34876;SDS011;21086;44.780;17.194;2024-02-14T02:30:37;7.05;;;4.10;;
34876;SDS011;21086;44.780;17.194;2024-02-14T02:33:05;9.60;;;4.43;;
34876;SDS011;21086;44.780;17.194;2024-02-14T02:35:34;11.55;;;5.05;;
34876;SDS011;21086;44.780;17.194;2024-02-14T02:38:01;7.60;;;4.32;;
34876;SDS011;21086;44.780;17.194;2024-02-14T02:40:28;14.15;;;5.70;;
34876;SDS011;21086;44.780;17.194;2024-02-14T02:42:55;10.95;;;5.38;;
34876;SDS011;21086;44.780;17.194;2024-02-14T02:45:22;8.93;;;5.03;;
34876;SDS011;21086;44.780;17.194;2024-02-14T02:47:49;11.70;;;5.65;;
34876;SDS011;21086;44.780;17.194;2024-02-14T02:50:18;12.60;;;6.45;;
34876;SDS011;21086;44.780;17.194;2024-02-14T02:52:48;11.25;;;6.15;;
34876;SDS011;21086;44.780;17.194;2024-02-14T02:55:15;12.35;;;6.72;;
34876;SDS011;21086;44.780;17.194;2024-02-14T02:57:44;11.25;;;5.82;;
34876;SDS011;21086;44.780;17.194;2024-02-14T03:00:12;9.77;;;5.18;;
34876;SDS011;21086;44.780;17.194;2024-02-14T03:02:40;8.70;;;5.03;;
34876;SDS011;21086;44.780;17.194;2024-02-14T03:05:11;7.25;;;4.43;;
34876;SDS011;21086;44.780;17.194;2024-02-14T03:07:45;9.43;;;4.90;;
34876;SDS011;21086;44.780;17.194;2024-02-14T03:10:14;7.25;;;4.43;;
34876;SDS011;21086;44.780;17.194;2024-02-14T03:12:48;6.88;;;4.65;;
34876;SDS011;21086;44.780;17.194;2024-02-14T03:15:15;9.38;;;5.10;;
34876;SDS011;21086;44.780;17.194;2024-02-14T03:17:44;9.50;;;5.32;;
34876;SDS011;21086;44.780;17.194;2024-02-14T03:20:11;8.55;;;4.85;;
34876;SDS011;21086;44.780;17.194;2024-02-14T03:22:43;10.15;;;5.53;;
34876;SDS011;21086;44.780;17.194;2024-02-14T03:25:18;11.68;;;6.25;;
34876;SDS011;21086;44.780;17.194;2024-02-14T03:27:46;12.15;;;6.35;;
34876;SDS011;21086;44.780;17.194;2024-02-14T03:30:16;10.57;;;5.78;;
34876;SDS011;21086;44.780;17.194;2024-02-14T03:32:44;10.30;;;5.90;;
34876;SDS011;21086;44.780;17.194;2024-02-14T03:35:12;9.57;;;4.93;;
34876;SDS011;21086;44.780;17.194;2024-02-14T03:37:43;10.70;;;5.32;;
34876;SDS011;21086;44.780;17.194;2024-02-14T03:40:14;7.57;;;4.18;;
34876;SDS011;21086;44.780;17.194;2024-02-14T03:42:41;9.75;;;4.85;;
34876;SDS011;21086;44.780;17.194;2024-02-14T03:45:08;9.45;;;4.65;;
34876;SDS011;21086;44.780;17.194;2024-02-14T03:47:36;8.45;;;4.55;;
34876;SDS011;21086;44.780;17.194;2024-02-14T03:50:10;10.02;;;4.65;;
34876;SDS011;21086;44.780;17.194;2024-02-14T03:52:37;12.48;;;5.65;;
34876;SDS011;21086;44.780;17.194;2024-02-14T03:55:05;14.07;;;6.00;;
34876;SDS011;21086;44.780;17.194;2024-02-14T03:57:32;8.10;;;4.65;;
34876;SDS011;21086;44.780;17.194;2024-02-14T04:00:02;10.05;;;5.25;;
34876;SDS011;21086;44.780;17.194;2024-02-14T04:02:30;13.60;;;6.70;;
34876;SDS011;21086;44.780;17.194;2024-02-14T04:04:58;11.98;;;6.63;;
34876;SDS011;21086;44.780;17.194;2024-02-14T04:07:26;11.48;;;6.07;;
34876;SDS011;21086;44.780;17.194;2024-02-14T04:09:53;12.55;;;6.00;;
34876;SDS011;21086;44.780;17.194;2024-02-14T04:12:20;8.98;;;5.32;;
34876;SDS011;21086;44.780;17.194;2024-02-14T04:14:47;10.18;;;4.88;;
34876;SDS011;21086;44.780;17.194;2024-02-14T04:17:15;8.45;;;4.50;;
34876;SDS011;21086;44.780;17.194;2024-02-14T04:19:42;8.90;;;4.88;;
34876;SDS011;21086;44.780;17.194;2024-02-14T04:22:09;8.85;;;4.97;;
34876;SDS011;21086;44.780;17.194;2024-02-14T04:24:36;8.75;;;4.72;;
34876;SDS011;21086;44.780;17.194;2024-02-14T04:27:03;8.00;;;4.25;;
34876;SDS011;21086;44.780;17.194;2024-02-14T04:29:31;8.32;;;4.80;;
34876;SDS011;21086;44.780;17.194;2024-02-14T04:32:00;8.70;;;4.95;;
34876;SDS011;21086;44.780;17.194;2024-02-14T04:34:28;12.65;;;6.90;;
34876;SDS011;21086;44.780;17.194;2024-02-14T04:36:57;15.32;;;6.70;;
34876;SDS011;21086;44.780;17.194;2024-02-14T04:39:24;16.08;;;7.38;;
34876;SDS011;21086;44.780;17.194;2024-02-14T04:41:51;14.00;;;7.90;;
34876;SDS011;21086;44.780;17.194;2024-02-14T04:44:28;14.90;;;7.30;;
34876;SDS011;21086;44.780;17.194;2024-02-14T04:46:56;13.07;;;6.82;;
34876;SDS011;21086;44.780;17.194;2024-02-14T04:49:26;9.07;;;4.40;;
34876;SDS011;21086;44.780;17.194;2024-02-14T04:51:56;7.70;;;4.60;;
34876;SDS011;21086;44.780;17.194;2024-02-14T04:54:23;8.93;;;5.22;;
34876;SDS011;21086;44.780;17.194;2024-02-14T04:56:52;7.60;;;4.80;;
34876;SDS011;21086;44.780;17.194;2024-02-14T04:59:24;7.28;;;4.55;;
34876;SDS011;21086;44.780;17.194;2024-02-14T05:01:52;6.82;;;4.25;;
34876;SDS011;21086;44.780;17.194;2024-02-14T05:04:20;6.00;;;3.85;;
34876;SDS011;21086;44.780;17.194;2024-02-14T05:06:47;6.72;;;3.80;;
34876;SDS011;21086;44.780;17.194;2024-02-14T05:09:16;7.85;;;4.97;;
34876;SDS011;21086;44.780;17.194;2024-02-14T05:11:44;11.80;;;4.65;;
34876;SDS011;21086;44.780;17.194;2024-02-14T05:14:11;10.00;;;5.15;;
34876;SDS011;21086;44.780;17.194;2024-02-14T05:16:38;9.25;;;4.20;;
34876;SDS011;21086;44.780;17.194;2024-02-14T05:19:05;12.50;;;6.35;;
34876;SDS011;21086;44.780;17.194;2024-02-14T05:21:32;10.10;;;6.28;;
34876;SDS011;21086;44.780;17.194;2024-02-14T05:23:59;13.73;;;6.10;;
34876;SDS011;21086;44.780;17.194;2024-02-14T05:26:26;8.82;;;4.05;;
34876;SDS011;21086;44.780;17.194;2024-02-14T05:28:53;9.60;;;5.00;;
34876;SDS011;21086;44.780;17.194;2024-02-14T05:31:20;10.30;;;4.32;;
34876;SDS011;21086;44.780;17.194;2024-02-14T05:33:48;6.75;;;4.28;;
34876;SDS011;21086;44.780;17.194;2024-02-14T05:36:15;13.90;;;4.70;;
34876;SDS011;21086;44.780;17.194;2024-02-14T05:38:43;7.57;;;3.78;;
34876;SDS011;21086;44.780;17.194;2024-02-14T05:41:10;8.02;;;4.53;;
34876;SDS011;21086;44.780;17.194;2024-02-14T05:43:38;11.15;;;4.63;;
34876;SDS011;21086;44.780;17.194;2024-02-14T05:46:05;10.55;;;4.72;;
34876;SDS011;21086;44.780;17.194;2024-02-14T05:48:32;9.93;;;4.80;;
34876;SDS011;21086;44.780;17.194;2024-02-14T05:50:59;15.57;;;5.50;;
34876;SDS011;21086;44.780;17.194;2024-02-14T05:53:26;14.80;;;5.78;;
34876;SDS011;21086;44.780;17.194;2024-02-14T05:55:53;16.75;;;5.50;;
34876;SDS011;21086;44.780;17.194;2024-02-14T05:58:20;11.95;;;5.47;;
34876;SDS011;21086;44.780;17.194;2024-02-14T06:00:47;9.32;;;4.97;;
34876;SDS011;21086;44.780;17.194;2024-02-14T06:03:14;8.10;;;5.68;;
34876;SDS011;21086;44.780;17.194;2024-02-14T06:05:42;12.43;;;5.85;;
34876;SDS011;21086;44.780;17.194;2024-02-14T06:08:10;9.27;;;4.90;;
34876;SDS011;21086;44.780;17.194;2024-02-14T06:10:37;10.27;;;5.35;;
34876;SDS011;21086;44.780;17.194;2024-02-14T06:13:05;10.27;;;4.65;;
34876;SDS011;21086;44.780;17.194;2024-02-14T06:15:32;9.52;;;5.18;;
34876;SDS011;21086;44.780;17.194;2024-02-14T06:17:59;10.20;;;5.03;;
34876;SDS011;21086;44.780;17.194;2024-02-14T06:20:27;11.27;;;5.47;;
34876;SDS011;21086;44.780;17.194;2024-02-14T06:22:54;12.23;;;5.70;;
34876;SDS011;21086;44.780;17.194;2024-02-14T06:25:30;9.02;;;5.20;;
34876;SDS011;21086;44.780;17.194;2024-02-14T06:27:57;10.00;;;5.00;;
34876;SDS011;21086;44.780;17.194;2024-02-14T06:30:24;13.05;;;6.15;;
34876;SDS011;21086;44.780;17.194;2024-02-14T06:32:56;28.80;;;21.45;;
34876;SDS011;21086;44.780;17.194;2024-02-14T06:35:27;20.90;;;13.77;;
34876;SDS011;21086;44.780;17.194;2024-02-14T06:37:56;19.45;;;13.07;;
34876;SDS011;21086;44.780;17.194;2024-02-14T06:40:30;24.17;;;13.43;;
34876;SDS011;21086;44.780;17.194;2024-02-14T06:42:57;35.30;;;20.67;;
34876;SDS011;21086;44.780;17.194;2024-02-14T06:45:27;47.33;;;26.35;;
34876;SDS011;21086;44.780;17.194;2024-02-14T06:47:54;47.97;;;25.67;;
34876;SDS011;21086;44.780;17.194;2024-02-14T06:50:22;45.17;;;23.85;;
34876;SDS011;21086;44.780;17.194;2024-02-14T06:52:52;44.88;;;21.70;;
34876;SDS011;21086;44.780;17.194;2024-02-14T06:55:21;46.40;;;23.13;;
34876;SDS011;21086;44.780;17.194;2024-02-14T06:57:48;53.83;;;25.27;;
34876;SDS011;21086;44.780;17.194;2024-02-14T07:00:15;18.60;;;9.85;;
34876;SDS011;21086;44.780;17.194;2024-02-14T07:02:43;14.50;;;7.63;;
34876;SDS011;21086;44.780;17.194;2024-02-14T07:05:10;28.63;;;14.32;;
34876;SDS011;21086;44.780;17.194;2024-02-14T07:07:41;17.67;;;9.55;;
34876;SDS011;21086;44.780;17.194;2024-02-14T07:10:08;16.30;;;8.35;;
34876;SDS011;21086;44.780;17.194;2024-02-14T07:12:35;15.23;;;6.88;;
34876;SDS011;21086;44.780;17.194;2024-02-14T07:15:03;10.85;;;6.88;;
34876;SDS011;21086;44.780;17.194;2024-02-14T07:17:33;26.13;;;12.45;;
34876;SDS011;21086;44.780;17.194;2024-02-14T07:20:01;49.78;;;22.80;;
34876;SDS011;21086;44.780;17.194;2024-02-14T07:22:29;26.25;;;12.30;;
34876;SDS011;21086;44.780;17.194;2024-02-14T07:24:59;11.73;;;6.28;;
34876;SDS011;21086;44.780;17.194;2024-02-14T07:27:26;10.20;;;5.65;;
34876;SDS011;21086;44.780;17.194;2024-02-14T07:29:53;10.82;;;5.05;;
34876;SDS011;21086;44.780;17.194;2024-02-14T07:32:20;8.52;;;5.13;;
34876;SDS011;21086;44.780;17.194;2024-02-14T07:34:48;14.65;;;6.05;;
34876;SDS011;21086;44.780;17.194;2024-02-14T07:37:15;9.68;;;4.95;;
34876;SDS011;21086;44.780;17.194;2024-02-14T07:39:44;9.15;;;5.32;;
34876;SDS011;21086;44.780;17.194;2024-02-14T07:42:13;12.65;;;5.63;;
34876;SDS011;21086;44.780;17.194;2024-02-14T07:44:40;11.70;;;6.03;;
34876;SDS011;21086;44.780;17.194;2024-02-14T07:47:07;11.38;;;5.97;;
34876;SDS011;21086;44.780;17.194;2024-02-14T07:49:34;13.13;;;6.53;;
34876;SDS011;21086;44.780;17.194;2024-02-14T07:52:04;25.20;;;8.10;;
34876;SDS011;21086;44.780;17.194;2024-02-14T07:54:31;11.55;;;6.40;;
34876;SDS011;21086;44.780;17.194;2024-02-14T07:56:59;9.88;;;5.97;;
34876;SDS011;21086;44.780;17.194;2024-02-14T07:59:26;9.63;;;5.47;;
34876;SDS011;21086;44.780;17.194;2024-02-14T08:01:57;11.50;;;5.43;;
34876;SDS011;21086;44.780;17.194;2024-02-14T08:04:24;9.02;;;5.65;;
34876;SDS011;21086;44.780;17.194;2024-02-14T08:06:51;8.57;;;5.32;;
34876;SDS011;21086;44.780;17.194;2024-02-14T08:09:18;10.40;;;6.22;;
34876;SDS011;21086;44.780;17.194;2024-02-14T08:11:45;12.57;;;6.75;;
34876;SDS011;21086;44.780;17.194;2024-02-14T08:14:15;7.90;;;4.80;;
34876;SDS011;21086;44.780;17.194;2024-02-14T08:16:47;8.75;;;5.40;;
34876;SDS011;21086;44.780;17.194;2024-02-14T08:19:14;17.33;;;9.32;;
34876;SDS011;21086;44.780;17.194;2024-02-14T08:21:42;17.63;;;8.20;;
34876;SDS011;21086;44.780;17.194;2024-02-14T08:24:09;9.80;;;6.05;;
34876;SDS011;21086;44.780;17.194;2024-02-14T08:26:36;10.10;;;5.55;;
34876;SDS011;21086;44.780;17.194;2024-02-14T08:29:04;7.47;;;4.30;;
34876;SDS011;21086;44.780;17.194;2024-02-14T08:31:31;10.45;;;5.25;;
34876;SDS011;21086;44.780;17.194;2024-02-14T08:33:59;8.88;;;5.75;;
34876;SDS011;21086;44.780;17.194;2024-02-14T08:36:26;7.72;;;5.93;;
34876;SDS011;21086;44.780;17.194;2024-02-14T08:38:53;11.65;;;6.20;;
34876;SDS011;21086;44.780;17.194;2024-02-14T08:41:20;10.05;;;6.28;;
34876;SDS011;21086;44.780;17.194;2024-02-14T08:43:49;9.90;;;5.57;;
34876;SDS011;21086;44.780;17.194;2024-02-14T08:46:17;11.13;;;6.43;;
34876;SDS011;21086;44.780;17.194;2024-02-14T08:48:44;12.40;;;6.32;;
34876;SDS011;21086;44.780;17.194;2024-02-14T08:51:16;11.85;;;6.97;;
34876;SDS011;21086;44.780;17.194;2024-02-14T08:53:46;10.60;;;6.43;;
34876;SDS011;21086;44.780;17.194;2024-02-14T08:56:13;15.27;;;6.75;;
34876;SDS011;21086;44.780;17.194;2024-02-14T08:58:41;8.93;;;5.28;;
34876;SDS011;21086;44.780;17.194;2024-02-14T09:01:08;13.05;;;6.82;;
34876;SDS011;21086;44.780;17.194;2024-02-14T09:03:41;9.60;;;5.88;;
34876;SDS011;21086;44.780;17.194;2024-02-14T09:06:16;13.00;;;6.38;;
34876;SDS011;21086;44.780;17.194;2024-02-14T09:08:50;11.15;;;6.90;;
34876;SDS011;21086;44.780;17.194;2024-02-14T09:11:18;35.55;;;16.23;;
34876;SDS011;21086;44.780;17.194;2024-02-14T09:13:46;14.82;;;8.35;;
34876;SDS011;21086;44.780;17.194;2024-02-14T09:16:15;19.75;;;11.15;;
34876;SDS011;21086;44.780;17.194;2024-02-14T09:18:44;18.20;;;10.88;;
34876;SDS011;21086;44.780;17.194;2024-02-14T09:21:12;17.27;;;8.85;;
34876;SDS011;21086;44.780;17.194;2024-02-14T09:23:44;14.18;;;8.05;;
34876;SDS011;21086;44.780;17.194;2024-02-14T09:26:13;11.13;;;7.05;;
34876;SDS011;21086;44.780;17.194;2024-02-14T09:28:40;27.13;;;12.65;;
34876;SDS011;21086;44.780;17.194;2024-02-14T09:31:07;13.85;;;8.90;;
34876;SDS011;21086;44.780;17.194;2024-02-14T09:33:37;11.80;;;8.35;;
34876;SDS011;21086;44.780;17.194;2024-02-14T09:36:05;12.00;;;7.63;;
34876;SDS011;21086;44.780;17.194;2024-02-14T09:38:33;14.27;;;7.85;;
34876;SDS011;21086;44.780;17.194;2024-02-14T09:41:06;13.88;;;7.70;;
34876;SDS011;21086;44.780;17.194;2024-02-14T09:43:43;11.82;;;7.45;;
34876;SDS011;21086;44.780;17.194;2024-02-14T09:46:12;12.23;;;7.18;;
34876;SDS011;21086;44.780;17.194;2024-02-14T09:48:44;9.57;;;6.57;;
34876;SDS011;21086;44.780;17.194;2024-02-14T09:51:12;10.73;;;6.10;;
34876;SDS011;21086;44.780;17.194;2024-02-14T09:53:40;12.85;;;7.43;;
34876;SDS011;21086;44.780;17.194;2024-02-14T09:56:10;9.52;;;5.47;;
34876;SDS011;21086;44.780;17.194;2024-02-14T09:58:39;8.48;;;5.85;;
34876;SDS011;21086;44.780;17.194;2024-02-14T10:01:07;8.55;;;4.82;;
34876;SDS011;21086;44.780;17.194;2024-02-14T10:03:34;6.82;;;4.55;;
34876;SDS011;21086;44.780;17.194;2024-02-14T10:06:02;6.78;;;4.40;;
34876;SDS011;21086;44.780;17.194;2024-02-14T10:08:31;9.48;;;4.38;;
34876;SDS011;21086;44.780;17.194;2024-02-14T10:10:59;7.47;;;5.13;;
34876;SDS011;21086;44.780;17.194;2024-02-14T10:13:27;7.45;;;4.07;;
34876;SDS011;21086;44.780;17.194;2024-02-14T10:15:55;8.18;;;4.65;;
34876;SDS011;21086;44.780;17.194;2024-02-14T10:18:23;7.53;;;4.07;;
34876;SDS011;21086;44.780;17.194;2024-02-14T10:20:55;4.55;;;2.95;;
34876;SDS011;21086;44.780;17.194;2024-02-14T10:23:23;6.95;;;2.78;;
34876;SDS011;21086;44.780;17.194;2024-02-14T10:25:50;6.63;;;2.60;;
34876;SDS011;21086;44.780;17.194;2024-02-14T10:28:20;4.88;;;2.10;;
34876;SDS011;21086;44.780;17.194;2024-02-14T10:30:58;4.25;;;2.90;;
34876;SDS011;21086;44.780;17.194;2024-02-14T10:33:29;7.10;;;3.63;;
34876;SDS011;21086;44.780;17.194;2024-02-14T10:35:57;3.88;;;2.78;;
34876;SDS011;21086;44.780;17.194;2024-02-14T10:38:30;4.65;;;3.13;;
34876;SDS011;21086;44.780;17.194;2024-02-14T10:41:01;7.38;;;3.08;;
34876;SDS011;21086;44.780;17.194;2024-02-14T10:43:31;8.30;;;3.20;;
34876;SDS011;21086;44.780;17.194;2024-02-14T10:46:00;3.00;;;2.15;;
34876;SDS011;21086;44.780;17.194;2024-02-14T10:48:34;4.22;;;2.40;;
34876;SDS011;21086;44.780;17.194;2024-02-14T10:51:04;10.30;;;2.58;;
34876;SDS011;21086;44.780;17.194;2024-02-14T10:53:34;3.70;;;2.33;;
34876;SDS011;21086;44.780;17.194;2024-02-14T10:56:04;5.70;;;2.63;;
34876;SDS011;21086;44.780;17.194;2024-02-14T10:58:32;4.43;;;2.00;;
34876;SDS011;21086;44.780;17.194;2024-02-14T11:01:02;2.58;;;1.98;;
34876;SDS011;21086;44.780;17.194;2024-02-14T11:03:30;3.67;;;2.10;;
34876;SDS011;21086;44.780;17.194;2024-02-14T11:06:00;6.03;;;2.67;;
34876;SDS011;21086;44.780;17.194;2024-02-14T11:08:31;6.63;;;2.85;;
34876;SDS011;21086;44.780;17.194;2024-02-14T11:10:59;4.28;;;2.42;;
34876;SDS011;21086;44.780;17.194;2024-02-14T11:13:30;6.63;;;2.90;;
34876;SDS011;21086;44.780;17.194;2024-02-14T11:16:02;4.25;;;2.70;;
34876;SDS011;21086;44.780;17.194;2024-02-14T11:18:31;3.88;;;2.35;;
34876;SDS011;21086;44.780;17.194;2024-02-14T11:21:03;6.20;;;2.60;;
34876;SDS011;21086;44.780;17.194;2024-02-14T11:23:31;5.57;;;2.55;;
34876;SDS011;21086;44.780;17.194;2024-02-14T11:26:05;4.15;;;2.53;;
34876;SDS011;21086;44.780;17.194;2024-02-14T11:28:36;2.88;;;2.00;;
34876;SDS011;21086;44.780;17.194;2024-02-14T11:31:06;49.50;;;6.78;;
34876;SDS011;21086;44.780;17.194;2024-02-14T11:33:36;3.47;;;2.50;;
34876;SDS011;21086;44.780;17.194;2024-02-14T11:36:09;3.42;;;2.15;;
34876;SDS011;21086;44.780;17.194;2024-02-14T11:38:39;4.18;;;2.47;;
34876;SDS011;21086;44.780;17.194;2024-02-14T11:41:07;3.05;;;2.20;;
34876;SDS011;21086;44.780;17.194;2024-02-14T11:43:36;4.35;;;2.72;;
34876;SDS011;21086;44.780;17.194;2024-02-14T11:46:06;6.07;;;3.58;;
34876;SDS011;21086;44.780;17.194;2024-02-14T11:48:33;3.85;;;2.63;;
34876;SDS011;21086;44.780;17.194;2024-02-14T11:51:01;4.18;;;2.47;;
34876;SDS011;21086;44.780;17.194;2024-02-14T11:53:28;4.43;;;2.97;;
34876;SDS011;21086;44.780;17.194;2024-02-14T11:55:55;5.88;;;2.95;;
34876;SDS011;21086;44.780;17.194;2024-02-14T11:58:23;11.38;;;2.90;;
34876;SDS011;21086;44.780;17.194;2024-02-14T12:00:50;6.93;;;2.78;;
34876;SDS011;21086;44.780;17.194;2024-02-14T12:03:22;4.05;;;2.53;;
34876;SDS011;21086;44.780;17.194;2024-02-14T12:05:50;5.05;;;2.58;;
34876;SDS011;21086;44.780;17.194;2024-02-14T12:08:19;5.50;;;2.67;;
34876;SDS011;21086;44.780;17.194;2024-02-14T12:10:48;4.38;;;2.53;;
34876;SDS011;21086;44.780;17.194;2024-02-14T12:13:20;7.90;;;3.28;;
34876;SDS011;21086;44.780;17.194;2024-02-14T12:15:48;6.85;;;3.60;;
34876;SDS011;21086;44.780;17.194;2024-02-14T12:18:18;6.53;;;3.42;;
34876;SDS011;21086;44.780;17.194;2024-02-14T12:20:47;7.30;;;2.65;;
34876;SDS011;21086;44.780;17.194;2024-02-14T12:23:21;4.18;;;2.30;;
34876;SDS011;21086;44.780;17.194;2024-02-14T12:25:53;5.57;;;2.30;;
34876;SDS011;21086;44.780;17.194;2024-02-14T12:28:20;5.47;;;2.47;;
34876;SDS011;21086;44.780;17.194;2024-02-14T12:30:51;4.07;;;2.60;;
34876;SDS011;21086;44.780;17.194;2024-02-14T12:33:26;5.88;;;3.00;;
34876;SDS011;21086;44.780;17.194;2024-02-14T12:35:54;6.22;;;3.05;;
34876;SDS011;21086;44.780;17.194;2024-02-14T12:38:24;3.88;;;2.50;;
34876;SDS011;21086;44.780;17.194;2024-02-14T12:40:51;4.93;;;2.75;;
34876;SDS011;21086;44.780;17.194;2024-02-14T12:43:20;4.93;;;3.00;;
34876;SDS011;21086;44.780;17.194;2024-02-14T12:45:48;7.85;;;3.20;;
34876;SDS011;21086;44.780;17.194;2024-02-14T12:48:21;4.15;;;2.78;;
34876;SDS011;21086;44.780;17.194;2024-02-14T12:50:54;5.53;;;3.00;;
34876;SDS011;21086;44.780;17.194;2024-02-14T12:53:21;5.60;;;3.15;;
34876;SDS011;21086;44.780;17.194;2024-02-14T12:55:49;5.05;;;3.17;;
34876;SDS011;21086;44.780;17.194;2024-02-14T12:58:16;4.10;;;2.83;;
34876;SDS011;21086;44.780;17.194;2024-02-14T13:00:43;5.75;;;3.47;;
34876;SDS011;21086;44.780;17.194;2024-02-14T13:03:11;4.35;;;2.65;;
34876;SDS011;21086;44.780;17.194;2024-02-14T13:05:43;4.78;;;2.40;;
34876;SDS011;21086;44.780;17.194;2024-02-14T13:08:11;3.15;;;2.22;;
34876;SDS011;21086;44.780;17.194;2024-02-14T13:10:38;3.58;;;2.45;;
34876;SDS011;21086;44.780;17.194;2024-02-14T13:13:05;6.07;;;2.90;;
34876;SDS011;21086;44.780;17.194;2024-02-14T13:15:32;6.80;;;2.67;;
34876;SDS011;21086;44.780;17.194;2024-02-14T13:17:59;3.42;;;2.08;;
34876;SDS011;21086;44.780;17.194;2024-02-14T13:20:27;4.70;;;2.30;;
34876;SDS011;21086;44.780;17.194;2024-02-14T13:22:55;6.88;;;2.28;;
34876;SDS011;21086;44.780;17.194;2024-02-14T13:25:22;4.35;;;2.70;;
34876;SDS011;21086;44.780;17.194;2024-02-14T13:27:49;5.72;;;2.15;;
34876;SDS011;21086;44.780;17.194;2024-02-14T13:30:16;5.30;;;2.42;;
34876;SDS011;21086;44.780;17.194;2024-02-14T13:32:45;5.97;;;2.85;;
34876;SDS011;21086;44.780;17.194;2024-02-14T13:35:12;7.03;;;3.22;;
34876;SDS011;21086;44.780;17.194;2024-02-14T13:37:40;12.43;;;3.03;;
34876;SDS011;21086;44.780;17.194;2024-02-14T13:40:07;7.82;;;3.25;;
34876;SDS011;21086;44.780;17.194;2024-02-14T13:42:38;6.03;;;3.10;;
34876;SDS011;21086;44.780;17.194;2024-02-14T13:45:05;5.28;;;2.78;;
34876;SDS011;21086;44.780;17.194;2024-02-14T13:47:37;7.10;;;3.10;;
34876;SDS011;21086;44.780;17.194;2024-02-14T13:50:12;5.68;;;3.83;;
34876;SDS011;21086;44.780;17.194;2024-02-14T13:52:40;4.38;;;2.85;;
34876;SDS011;21086;44.780;17.194;2024-02-14T13:55:07;5.95;;;2.40;;
34876;SDS011;21086;44.780;17.194;2024-02-14T13:57:37;3.88;;;2.10;;
34876;SDS011;21086;44.780;17.194;2024-02-14T14:00:07;8.95;;;2.80;;
34876;SDS011;21086;44.780;17.194;2024-02-14T14:02:38;4.13;;;2.25;;
34876;SDS011;21086;44.780;17.194;2024-02-14T14:05:11;4.30;;;2.42;;
34876;SDS011;21086;44.780;17.194;2024-02-14T14:07:43;3.50;;;2.38;;
34876;SDS011;21086;44.780;17.194;2024-02-14T14:10:23;4.03;;;2.72;;
34876;SDS011;21086;44.780;17.194;2024-02-14T14:12:55;6.35;;;2.63;;
34876;SDS011;21086;44.780;17.194;2024-02-14T14:15:22;4.30;;;2.42;;
34876;SDS011;21086;44.780;17.194;2024-02-14T14:17:50;4.75;;;2.35;;
34876;SDS011;21086;44.780;17.194;2024-02-14T14:20:18;5.50;;;2.78;;
34876;SDS011;21086;44.780;17.194;2024-02-14T14:22:46;5.47;;;3.17;;
34876;SDS011;21086;44.780;17.194;2024-02-14T14:25:13;6.78;;;2.83;;
34876;SDS011;21086;44.780;17.194;2024-02-14T14:27:41;6.82;;;2.63;;
34876;SDS011;21086;44.780;17.194;2024-02-14T14:30:09;6.95;;;2.80;;
34876;SDS011;21086;44.780;17.194;2024-02-14T14:32:38;6.88;;;3.10;;